ASX360 EKCH-LSZH
Flight info
| Callsign | ASX360 |
|---|---|
| Flight time | N/A |
| Altitude | 38000 |
| Route | NEXEN T503 GIMRU DCT MICOS DCT TOLGI DCT SWALM DCT OMOGI T721 RILAX |
| Aircraft | A20N/M-SDE2E3FGHIJ1RWXY/LB1 |
Departure
| Time | 2026-05-06 07:13 |
|---|---|
| Airport | Copenhagen Kastrup Airport (EKCH) |
Arrival
| Time | N/A |
|---|---|
| Airport | Zürich Airport (LSZH) |
| Time | Latitude | Longitude | Altitude | Speed | Heading |
|---|---|---|---|---|---|
| 2026-05-06 06:50 | 55.62704 | 12.64167 | 53 ft | 0 kts | 32° |
| 2026-05-06 07:01 | 55.62700 | 12.64162 | 57 ft | 4 kts | 33° |
| 2026-05-06 07:01 | 55.62678 | 12.64134 | 25 ft | 4 kts | 41° |
| 2026-05-06 07:02 | 55.62659 | 12.64100 | 28 ft | 4 kts | 60° |
| 2026-05-06 07:02 | 55.62653 | 12.64060 | 29 ft | 4 kts | 119° |
| 2026-05-06 07:02 | 55.62666 | 12.64023 | 28 ft | 4 kts | 120° |
| 2026-05-06 07:02 | 55.62679 | 12.63981 | 25 ft | 4 kts | 122° |
| 2026-05-06 07:03 | 55.62694 | 12.63948 | 27 ft | 3 kts | 142° |
| 2026-05-06 07:03 | 55.62716 | 12.63921 | 26 ft | 4 kts | 158° |
| 2026-05-06 07:03 | 55.62740 | 12.63915 | 27 ft | 3 kts | 208° |
| 2026-05-06 07:03 | 55.62759 | 12.63932 | 26 ft | 4 kts | 182° |
| 2026-05-06 07:04 | 55.62780 | 12.63917 | 26 ft | 4 kts | 124° |
| 2026-05-06 07:04 | 55.62788 | 12.63893 | 23 ft | 1 kts | 116° |
| 2026-05-06 07:06 | 55.62787 | 12.63898 | 23 ft | 2 kts | 116° |
| 2026-05-06 07:06 | 55.62772 | 12.63928 | 26 ft | 3 kts | 155° |
| 2026-05-06 07:06 | 55.62740 | 12.63917 | 25 ft | 6 kts | 210° |
| 2026-05-06 07:06 | 55.62695 | 12.63864 | 25 ft | 10 kts | 211° |
| 2026-05-06 07:07 | 55.62638 | 12.63902 | 25 ft | 11 kts | 132° |
| 2026-05-06 07:07 | 55.62593 | 12.64021 | 26 ft | 13 kts | 123° |
| 2026-05-06 07:07 | 55.62537 | 12.64172 | 24 ft | 17 kts | 123° |
| 2026-05-06 07:07 | 55.62462 | 12.64363 | 25 ft | 20 kts | 128° |
| 2026-05-06 07:08 | 55.62374 | 12.64574 | 24 ft | 22 kts | 122° |
| 2026-05-06 07:08 | 55.62287 | 12.64812 | 24 ft | 24 kts | 123° |
| 2026-05-06 07:08 | 55.62192 | 12.65067 | 25 ft | 25 kts | 127° |
| 2026-05-06 07:08 | 55.62111 | 12.65066 | 25 ft | 9 kts | 217° |
| 2026-05-06 07:09 | 55.62041 | 12.64984 | 26 ft | 16 kts | 212° |
| 2026-05-06 07:09 | 55.61928 | 12.64853 | 25 ft | 22 kts | 213° |
| 2026-05-06 07:09 | 55.61792 | 12.64700 | 25 ft | 24 kts | 213° |
| 2026-05-06 07:09 | 55.61642 | 12.64526 | 23 ft | 27 kts | 213° |
| 2026-05-06 07:10 | 55.61482 | 12.64342 | 28 ft | 29 kts | 213° |
| 2026-05-06 07:10 | 55.61311 | 12.64146 | 25 ft | 30 kts | 213° |
| 2026-05-06 07:10 | 55.61138 | 12.63948 | 24 ft | 29 kts | 212° |
| 2026-05-06 07:10 | 55.60971 | 12.63755 | 24 ft | 29 kts | 213° |
| 2026-05-06 07:11 | 55.60813 | 12.63592 | 25 ft | 20 kts | 180° |
| 2026-05-06 07:11 | 55.60722 | 12.63737 | 25 ft | 18 kts | 131° |
| 2026-05-06 07:11 | 55.60686 | 12.63888 | 25 ft | 11 kts | 46° |
| 2026-05-06 07:11 | 55.60726 | 12.63945 | 27 ft | 0 kts | 40° |
| 2026-05-06 07:12 | 55.60727 | 12.63945 | 27 ft | 2 kts | 40° |
| 2026-05-06 07:12 | 55.60904 | 12.64221 | 27 ft | 69 kts | 40° |
| 2026-05-06 07:12 | 55.61414 | 12.65008 | 27 ft | 125 kts | 41° |
| 2026-05-06 07:12 | 55.62163 | 12.66179 | 209 ft | 151 kts | 40° |
| 2026-05-06 07:13 | 55.62930 | 12.67435 | 858 ft | 150 kts | 43° |
| 2026-05-06 07:13 | 55.63712 | 12.68689 | 1539 ft | 153 kts | 41° |
| 2026-05-06 07:13 | 55.64540 | 12.69930 | 2105 ft | 162 kts | 41° |
| 2026-05-06 07:13 | 55.65444 | 12.71282 | 2495 ft | 181 kts | 41° |
| 2026-05-06 07:14 | 55.66476 | 12.72838 | 2850 ft | 208 kts | 41° |
| 2026-05-06 07:14 | 55.67635 | 12.74577 | 3402 ft | 231 kts | 40° |
| 2026-05-06 07:14 | 55.68934 | 12.76468 | 4084 ft | 249 kts | 40° |
| 2026-05-06 07:14 | 55.70072 | 12.78807 | 5058 ft | 254 kts | 63° |
| 2026-05-06 07:15 | 55.70510 | 12.81902 | 6055 ft | 262 kts | 89° |
| 2026-05-06 07:15 | 55.70090 | 12.85074 | 6934 ft | 271 kts | 116° |
| 2026-05-06 07:15 | 55.68851 | 12.87689 | 7827 ft | 279 kts | 144° |
| 2026-05-06 07:15 | 55.67116 | 12.89204 | 8746 ft | 283 kts | 160° |
| 2026-05-06 07:16 | 55.65216 | 12.90337 | 9765 ft | 287 kts | 164° |
| 2026-05-06 07:16 | 55.63929 | 12.91061 | 10340 ft | 292 kts | 165° |
| 2026-05-06 07:16 | 55.61162 | 12.91557 | 10881 ft | 316 kts | 190° |
| 2026-05-06 07:16 | 55.59034 | 12.90276 | 11313 ft | 330 kts | 212° |
| 2026-05-06 07:17 | 55.57275 | 12.87646 | 12156 ft | 333 kts | 227° |
| 2026-05-06 07:17 | 55.55667 | 12.84689 | 13048 ft | 336 kts | 227° |
| 2026-05-06 07:17 | 55.54583 | 12.82699 | 13632 ft | 339 kts | 227° |
| 2026-05-06 07:17 | 55.52936 | 12.79687 | 14416 ft | 342 kts | 226° |
| 2026-05-06 07:18 | 55.51286 | 12.76626 | 15208 ft | 344 kts | 230° |
| 2026-05-06 07:18 | 55.49743 | 12.73383 | 15988 ft | 347 kts | 231° |
| 2026-05-06 07:18 | 55.48183 | 12.70089 | 16767 ft | 350 kts | 231° |
| 2026-05-06 07:18 | 55.46611 | 12.66784 | 17525 ft | 353 kts | 231° |
| 2026-05-06 07:19 | 55.45038 | 12.63482 | 18280 ft | 356 kts | 231° |
| 2026-05-06 07:19 | 55.43413 | 12.60081 | 18927 ft | 360 kts | 231° |
| 2026-05-06 07:19 | 55.41786 | 12.56682 | 19576 ft | 363 kts | 231° |
| 2026-05-06 07:19 | 55.40155 | 12.53278 | 20218 ft | 366 kts | 231° |
| 2026-05-06 07:20 | 55.38526 | 12.49885 | 20847 ft | 369 kts | 231° |
| 2026-05-06 07:20 | 55.36862 | 12.46423 | 21491 ft | 371 kts | 231° |
| 2026-05-06 07:20 | 55.35188 | 12.42944 | 22109 ft | 375 kts | 231° |
| 2026-05-06 07:20 | 55.33477 | 12.39395 | 22728 ft | 378 kts | 231° |
| 2026-05-06 07:21 | 55.31768 | 12.35855 | 23362 ft | 381 kts | 231° |
| 2026-05-06 07:21 | 55.30070 | 12.32341 | 23895 ft | 383 kts | 230° |
| 2026-05-06 07:21 | 55.28334 | 12.28754 | 24435 ft | 385 kts | 230° |
| 2026-05-06 07:21 | 55.26612 | 12.25200 | 24960 ft | 387 kts | 230° |
| 2026-05-06 07:22 | 55.24858 | 12.21588 | 25465 ft | 390 kts | 229° |
| 2026-05-06 07:22 | 55.23093 | 12.17959 | 25968 ft | 392 kts | 229° |
| 2026-05-06 07:22 | 55.21290 | 12.14344 | 26449 ft | 394 kts | 226° |
| 2026-05-06 07:22 | 55.19294 | 12.11031 | 26919 ft | 396 kts | 220° |
| 2026-05-06 07:23 | 55.17102 | 12.08101 | 27379 ft | 398 kts | 216° |
| 2026-05-06 07:23 | 55.14845 | 12.05246 | 27821 ft | 401 kts | 216° |
| 2026-05-06 07:23 | 55.12576 | 12.02360 | 28261 ft | 403 kts | 216° |
| 2026-05-06 07:23 | 55.10313 | 11.99473 | 28666 ft | 405 kts | 216° |
| 2026-05-06 07:24 | 55.08022 | 11.96552 | 29058 ft | 408 kts | 215° |
| 2026-05-06 07:24 | 55.05761 | 11.93672 | 29431 ft | 410 kts | 215° |
| 2026-05-06 07:24 | 55.03442 | 11.90722 | 29827 ft | 412 kts | 215° |
| 2026-05-06 07:24 | 55.01077 | 11.87718 | 30172 ft | 415 kts | 215° |
| 2026-05-06 07:25 | 54.98769 | 11.84792 | 30517 ft | 416 kts | 214° |
| 2026-05-06 07:25 | 54.96424 | 11.81824 | 30852 ft | 418 kts | 214° |
| 2026-05-06 07:25 | 54.94070 | 11.78848 | 31230 ft | 419 kts | 214° |
| 2026-05-06 07:25 | 54.91705 | 11.75863 | 31687 ft | 417 kts | 214° |
| 2026-05-06 07:26 | 54.89381 | 11.72933 | 32152 ft | 416 kts | 213° |
| 2026-05-06 07:26 | 54.87056 | 11.70006 | 32619 ft | 414 kts | 213° |
| 2026-05-06 07:26 | 54.84719 | 11.67068 | 33057 ft | 412 kts | 213° |
| 2026-05-06 07:26 | 54.82428 | 11.64194 | 33494 ft | 411 kts | 213° |
| 2026-05-06 07:27 | 54.80087 | 11.61261 | 33903 ft | 409 kts | 213° |
| 2026-05-06 07:27 | 54.77782 | 11.58380 | 34214 ft | 409 kts | 213° |
| 2026-05-06 07:27 | 54.75485 | 11.55513 | 34464 ft | 410 kts | 213° |
| 2026-05-06 07:27 | 54.73138 | 11.52589 | 34714 ft | 411 kts | 213° |
| 2026-05-06 07:28 | 54.70817 | 11.49700 | 34961 ft | 412 kts | 213° |
| 2026-05-06 07:28 | 54.68483 | 11.46800 | 35204 ft | 413 kts | 213° |
| 2026-05-06 07:28 | 54.63806 | 11.41002 | 35688 ft | 414 kts | 214° |
| 2026-05-06 07:29 | 54.61455 | 11.38094 | 35928 ft | 414 kts | 214° |
| 2026-05-06 07:29 | 54.59111 | 11.35199 | 36161 ft | 415 kts | 214° |
| 2026-05-06 07:29 | 54.56771 | 11.32313 | 36370 ft | 415 kts | 214° |
| 2026-05-06 07:29 | 54.54409 | 11.29409 | 36593 ft | 416 kts | 214° |
| 2026-05-06 07:30 | 54.52046 | 11.26528 | 36808 ft | 416 kts | 214° |
| 2026-05-06 07:30 | 54.49679 | 11.23653 | 37021 ft | 417 kts | 214° |
| 2026-05-06 07:30 | 54.47308 | 11.20778 | 37219 ft | 417 kts | 214° |
| 2026-05-06 07:30 | 54.44930 | 11.17896 | 37429 ft | 418 kts | 214° |
| 2026-05-06 07:31 | 54.42581 | 11.15051 | 37626 ft | 418 kts | 214° |
| 2026-05-06 07:31 | 54.40180 | 11.12147 | 37810 ft | 418 kts | 215° |
| 2026-05-06 07:31 | 54.35434 | 11.06416 | 37888 ft | 418 kts | 215° |
| 2026-05-06 07:32 | 54.30545 | 11.01083 | 37888 ft | 418 kts | 208° |
| 2026-05-06 07:32 | 54.25212 | 10.97092 | 37882 ft | 419 kts | 200° |
| 2026-05-06 07:33 | 54.21529 | 10.94821 | 37880 ft | 419 kts | 200° |